Time;durP1;ratioP1;P1;durP2;ratioP2;P2;SDS_P1;SDS_P2;PMS_P1;PMS_P2;Temp;Humidity;BMP_temperature;BMP_pressure;BME280_temperature;BME280_humidity;BME280_pressure;Samples;Min_cycle;Max_cycle;Signal;HPM_P1;HPM_P2
2021/07/04 00:00:10;;;;;;;18.90;13.93;;;17.90;99.90;;;;;;5073964;28;20466;-67
2021/07/04 00:02:36;;;;;;;19.13;13.52;;;17.90;99.90;;;;;;5074077;28;20024;-67
2021/07/04 00:05:04;;;;;;;20.05;14.13;;;17.80;99.90;;;;;;5073917;28;20027;-67
2021/07/04 00:07:29;;;;;;;20.77;14.77;;;17.80;99.90;;;;;;5074096;28;20024;-67
2021/07/04 00:09:55;;;;;;;22.60;14.95;;;17.80;99.90;;;;;;5073525;28;20021;-67
2021/07/04 00:12:20;;;;;;;18.05;13.05;;;17.80;99.90;;;;;;5072914;28;20071;-67
2021/07/04 00:14:46;;;;;;;19.38;13.43;;;17.70;99.90;;;;;;5073483;28;20039;-67
2021/07/04 00:17:11;;;;;;;23.70;14.23;;;17.70;99.90;;;;;;5072226;28;20078;-67
2021/07/04 00:19:37;;;;;;;17.30;14.25;;;17.60;99.90;;;;;;5073794;28;20020;-67
2021/07/04 00:22:02;;;;;;;17.45;13.85;;;17.70;99.90;;;;;;5073386;28;20494;-67
2021/07/04 00:24:28;;;;;;;24.83;15.77;;;17.70;99.90;;;;;;5073700;28;20063;-67
2021/07/04 00:26:53;;;;;;;16.70;14.00;;;17.60;99.90;;;;;;5073897;28;20480;-67
2021/07/04 00:29:19;;;;;;;19.98;14.23;;;17.60;99.90;;;;;;5072080;28;20016;-67
2021/07/04 00:31:44;;;;;;;18.00;14.73;;;17.70;99.90;;;;;;5073830;28;20012;-67
2021/07/04 00:34:10;;;;;;;20.25;14.18;;;17.60;99.90;;;;;;5072854;28;20029;-67
2021/07/04 00:36:35;;;;;;;20.67;16.33;;;17.60;99.90;;;;;;5073262;28;20060;-67
2021/07/04 00:39:01;;;;;;;21.95;15.82;;;17.50;99.90;;;;;;5073245;28;20028;-67
2021/07/04 00:41:27;;;;;;;20.42;15.10;;;17.40;99.90;;;;;;5073517;28;20033;-67
2021/07/04 00:43:52;;;;;;;20.35;15.35;;;17.50;99.90;;;;;;5071888;28;20029;-67
2021/07/04 00:46:18;;;;;;;21.42;14.88;;;17.50;99.90;;;;;;5072311;28;20020;-67
2021/07/04 00:48:43;;;;;;;19.63;13.50;;;17.50;99.90;;;;;;5073425;28;20469;-67
2021/07/04 00:51:09;;;;;;;18.83;14.93;;;17.50;99.90;;;;;;5071929;28;20508;-67
2021/07/04 00:53:43;;;;;;;21.42;15.20;;;17.50;99.90;;;;;;5073409;28;20047;-67
2021/07/04 00:56:09;;;;;;;22.17;14.02;;;17.50;99.90;;;;;;5073652;28;20039;-67
2021/07/04 00:58:34;;;;;;;20.35;13.43;;;17.50;99.90;;;;;;5073900;28;20100;-67
2021/07/04 01:01:00;;;;;;;21.02;14.07;;;17.40;99.90;;;;;;5073088;28;20059;-67
2021/07/04 01:03:26;;;;;;;20.13;14.65;;;17.30;99.90;;;;;;5073496;28;20108;-67
2021/07/04 01:05:51;;;;;;;19.25;14.80;;;17.40;99.90;;;;;;5073556;28;20074;-67
2021/07/04 01:08:17;;;;;;;19.95;13.25;;;17.40;99.90;;;;;;5073553;28;20074;-67
2021/07/04 01:10:42;;;;;;;19.08;13.45;;;17.40;99.90;;;;;;5073509;28;20028;-67
2021/07/04 01:13:09;;;;;;;22.17;13.50;;;17.50;99.90;;;;;;5073248;28;20033;-67
2021/07/04 01:15:35;;;;;;;18.65;13.38;;;17.60;99.90;;;;;;5071666;28;20024;-67
2021/07/04 01:18:04;;;;;;;16.33;12.82;;;17.60;99.90;;;;;;5071745;28;20028;-67
2021/07/04 01:20:30;;;;;;;17.70;13.05;;;17.60;99.90;;;;;;5073141;28;20028;-67
2021/07/04 01:22:59;;;;;;;20.33;14.07;;;17.60;99.90;;;;;;5072815;28;20137;-68
2021/07/04 01:25:27;;;;;;;21.20;14.57;;;17.60;99.90;;;;;;5071542;28;20029;-67
2021/07/04 01:27:53;;;;;;;19.45;14.10;;;17.60;99.90;;;;;;5073351;28;20052;-67
2021/07/04 01:30:20;;;;;;;20.15;14.93;;;17.60;99.90;;;;;;5074568;28;20117;-67
2021/07/04 01:32:46;;;;;;;18.33;14.40;;;17.60;99.90;;;;;;5075067;28;20036;-67
2021/07/04 01:35:12;;;;;;;18.73;13.73;;;17.60;99.90;;;;;;5076687;28;20020;-67
2021/07/04 01:37:38;;;;;;;19.30;13.73;;;17.60;99.90;;;;;;5076796;28;20435;-67
2021/07/04 01:40:05;;;;;;;18.88;14.57;;;17.60;99.90;;;;;;5076782;28;20115;-67
2021/07/04 01:42:31;;;;;;;18.88;14.35;;;17.60;99.90;;;;;;5076701;28;20358;-67
2021/07/04 01:44:56;;;;;;;18.90;14.45;;;17.70;99.90;;;;;;5076685;28;20032;-67
2021/07/04 01:47:22;;;;;;;21.30;15.60;;;17.70;99.90;;;;;;5076669;28;20430;-67
2021/07/04 01:49:48;;;;;;;21.92;16.17;;;17.70;99.90;;;;;;5076063;28;20359;-67
2021/07/04 01:52:14;;;;;;;24.63;15.38;;;17.70;99.90;;;;;;5076019;28;20024;-67
2021/07/04 01:54:39;;;;;;;22.30;15.50;;;17.60;99.90;;;;;;5076595;28;20078;-67
2021/07/04 01:57:12;;;;;;;22.45;15.40;;;17.60;99.90;;;;;;5076190;28;20021;-67
2021/07/04 01:59:42;;;;;;;25.15;16.38;;;17.70;99.90;;;;;;5075891;28;20067;-67
2021/07/04 02:02:08;;;;;;;21.88;16.20;;;17.70;99.90;;;;;;5076323;28;20060;-67
2021/07/04 02:04:39;;;;;;;20.42;16.42;;;17.60;99.90;;;;;;5076051;28;20031;-67
2021/07/04 02:07:12;;;;;;;20.05;14.75;;;17.70;99.90;;;;;;5076270;28;20108;-67
2021/07/04 02:09:42;;;;;;;21.67;16.97;;;17.60;99.90;;;;;;5076277;28;20052;-67
2021/07/04 02:12:08;;;;;;;22.83;17.13;;;17.60;99.90;;;;;;5074971;28;20027;-67
2021/07/04 02:14:33;;;;;;;24.42;17.33;;;17.60;99.90;;;;;;5076171;28;20473;-67
2021/07/04 02:16:59;;;;;;;26.63;18.88;;;17.50;99.90;;;;;;5074282;28;20020;-67
2021/07/04 02:19:31;;;;;;;25.90;18.20;;;17.60;99.90;;;;;;5076083;28;20040;-67
2021/07/04 02:21:58;;;;;;;26.15;18.85;;;17.50;99.90;;;;;;5075794;28;20052;-67
2021/07/04 02:24:23;;;;;;;29.67;19.83;;;17.50;99.90;;;;;;5075917;28;20035;-67
2021/07/04 02:26:49;;;;;;;28.05;19.95;;;17.50;99.90;;;;;;5075939;28;20024;-67
2021/07/04 02:29:15;;;;;;;30.60;19.80;;;17.50;99.90;;;;;;5075834;28;20020;-67
2021/07/04 02:31:40;;;;;;;29.10;19.70;;;17.50;99.90;;;;;;5075250;28;20031;-67
2021/07/04 02:34:06;;;;;;;29.10;19.58;;;17.50;99.90;;;;;;5075766;28;20031;-67
2021/07/04 02:36:31;;;;;;;29.10;19.60;;;17.50;99.90;;;;;;5075438;28;20024;-67
2021/07/04 02:38:58;;;;;;;34.10;20.05;;;17.50;99.90;;;;;;5075442;28;20035;-67
2021/07/04 02:41:24;;;;;;;28.70;19.92;;;17.50;99.90;;;;;;5075657;28;20030;-67
2021/07/04 02:43:50;;;;;;;29.15;20.50;;;17.50;99.90;;;;;;5075501;28;20128;-67
2021/07/04 02:46:15;;;;;;;27.50;19.77;;;17.50;99.90;;;;;;5074978;28;20055;-67
2021/07/04 02:48:41;;;;;;;33.58;20.80;;;17.50;99.90;;;;;;5075215;28;20021;-67
2021/07/04 02:51:07;;;;;;;30.60;20.63;;;17.40;99.90;;;;;;5074249;28;20454;-67
2021/07/04 02:53:32;;;;;;;26.58;19.08;;;17.50;99.90;;;;;;5075099;28;20501;-67
2021/07/04 02:55:58;;;;;;;31.27;20.98;;;17.40;99.90;;;;;;5074812;28;20028;-67
2021/07/04 02:58:23;;;;;;;29.95;21.55;;;17.40;99.90;;;;;;5075309;28;20028;-67
2021/07/04 03:00:49;;;;;;;32.67;21.58;;;17.40;99.90;;;;;;5075295;28;20060;-67
2021/07/04 03:03:15;;;;;;;35.25;21.33;;;17.30;99.90;;;;;;5075088;28;20377;-67
2021/07/04 03:05:40;;;;;;;33.67;22.08;;;17.30;99.90;;;;;;5074911;28;20073;-67
2021/07/04 03:08:07;;;;;;;30.38;21.65;;;17.40;99.90;;;;;;5074809;28;20461;-67
2021/07/04 03:10:32;;;;;;;29.48;21.25;;;17.40;99.90;;;;;;5075069;28;20056;-67
2021/07/04 03:12:59;;;;;;;29.88;21.33;;;17.30;99.90;;;;;;5074982;28;20462;-67
2021/07/04 03:15:26;;;;;;;30.52;21.83;;;17.30;99.90;;;;;;5074947;28;20028;-67
2021/07/04 03:17:51;;;;;;;33.40;23.15;;;17.30;99.90;;;;;;5074886;28;20145;-67
2021/07/04 03:20:17;;;;;;;33.75;23.85;;;17.30;99.90;;;;;;5074583;28;20024;-67
2021/07/04 03:22:44;;;;;;;32.05;21.83;;;17.30;99.90;;;;;;5074308;28;20044;-67
2021/07/04 03:25:11;;;;;;;31.52;22.50;;;17.30;99.90;;;;;;5056425;28;20024;-67
2021/07/04 03:27:37;;;;;;;33.13;22.30;;;17.30;99.90;;;;;;5074455;28;20024;-67
2021/07/04 03:30:06;;;;;;;34.58;21.50;;;17.30;99.90;;;;;;5074700;28;20450;-67
2021/07/04 03:32:32;;;;;;;29.77;21.10;;;17.30;99.90;;;;;;5074631;28;20055;-67
2021/07/04 03:34:58;;;;;;;31.48;22.73;;;17.40;99.90;;;;;;5074339;28;20060;-67
2021/07/04 03:37:23;;;;;;;32.15;22.00;;;17.40;99.90;;;;;;5074527;28;20056;-67
2021/07/04 03:39:49;;;;;;;30.90;22.65;;;17.40;99.90;;;;;;5074254;28;20498;-67
2021/07/04 03:42:15;;;;;;;30.50;22.40;;;17.40;99.90;;;;;;5072922;28;20028;-67
2021/07/04 03:44:40;;;;;;;29.63;21.40;;;17.40;99.90;;;;;;5072997;28;20382;-67
2021/07/04 03:47:06;;;;;;;32.92;21.95;;;17.40;99.90;;;;;;5074101;28;20351;-67
2021/07/04 03:49:32;;;;;;;31.50;21.85;;;17.50;99.90;;;;;;5073825;28;20024;-67
2021/07/04 03:51:58;;;;;;;29.65;21.83;;;17.50;99.90;;;;;;5074009;28;20025;-67
2021/07/04 03:54:23;;;;;;;30.17;21.63;;;17.60;99.90;;;;;;5073555;28;20432;-67
2021/07/04 03:56:49;;;;;;;29.95;21.45;;;17.60;99.90;;;;;;5072837;28;20039;-67
2021/07/04 03:59:14;;;;;;;29.05;20.85;;;17.60;99.90;;;;;;5073664;28;20028;-67
2021/07/04 04:01:40;;;;;;;28.52;21.08;;;17.40;99.90;;;;;;5073083;28;20104;-67
2021/07/04 04:04:06;;;;;;;29.15;21.50;;;17.40;99.90;;;;;;5074074;28;20059;-67
2021/07/04 04:06:31;;;;;;;29.67;21.58;;;17.40;99.90;;;;;;5073886;28;20032;-67
2021/07/04 04:09:03;;;;;;;35.33;22.90;;;17.40;99.90;;;;;;5074105;28;20374;-67
2021/07/04 04:11:28;;;;;;;34.55;23.45;;;17.40;99.90;;;;;;5072675;28;20462;-67
2021/07/04 04:13:54;;;;;;;33.42;22.30;;;17.40;99.90;;;;;;5074067;28;20024;-67
2021/07/04 04:16:19;;;;;;;37.17;23.98;;;17.40;99.90;;;;;;5073792;28;20033;-67
2021/07/04 04:18:45;;;;;;;32.90;24.70;;;17.40;99.90;;;;;;5072248;28;20033;-67
2021/07/04 04:21:11;;;;;;;36.63;23.80;;;17.50;99.90;;;;;;5073735;28;20029;-67
2021/07/04 04:23:36;;;;;;;31.50;23.42;;;17.50;99.90;;;;;;5073219;28;20044;-67
2021/07/04 04:26:03;;;;;;;31.60;22.80;;;17.60;99.90;;;;;;5073391;28;20028;-67
2021/07/04 04:28:30;;;;;;;32.03;22.00;;;17.60;99.90;;;;;;5073924;28;20073;-67
2021/07/04 04:30:56;;;;;;;33.20;21.63;;;17.50;99.90;;;;;;5072699;28;20025;-67
2021/07/04 04:33:21;;;;;;;29.90;21.60;;;17.50;99.90;;;;;;5073901;28;20024;-67
2021/07/04 04:35:47;;;;;;;35.38;21.98;;;17.50;99.90;;;;;;5073871;28;20504;-67
2021/07/04 04:38:13;;;;;;;34.92;22.75;;;17.50;99.90;;;;;;5072412;28;20060;-67
2021/07/04 04:40:39;;;;;;;31.77;21.67;;;17.50;99.90;;;;;;5073805;28;20063;-67
2021/07/04 04:43:04;;;;;;;31.00;23.48;;;17.40;99.90;;;;;;5072553;28;20078;-67
2021/07/04 04:45:30;;;;;;;29.98;23.05;;;17.40;99.90;;;;;;5073752;28;20529;-67
2021/07/04 04:47:56;;;;;;;33.05;23.10;;;17.40;99.90;;;;;;5073752;28;20489;-67
2021/07/04 04:50:22;;;;;;;31.52;22.52;;;17.50;99.90;;;;;;5072008;28;20051;-67
2021/07/04 04:52:47;;;;;;;32.35;21.70;;;17.50;99.90;;;;;;5073426;28;20060;-67
2021/07/04 04:55:13;;;;;;;30.08;21.55;;;17.60;99.90;;;;;;5072214;28;20055;-67
2021/07/04 04:57:40;;;;;;;29.05;21.17;;;17.60;99.90;;;;;;5071923;28;20020;-67
2021/07/04 05:00:09;;;;;;;32.03;22.55;;;17.60;99.90;;;;;;5073636;28;20450;-67
2021/07/04 05:02:35;;;;;;;30.52;23.92;;;17.60;99.90;;;;;;5073565;28;20033;-67
2021/07/04 05:05:02;;;;;;;33.15;23.05;;;17.60;99.90;;;;;;5072636;28;20112;-67
2021/07/04 05:07:28;;;;;;;33.78;22.13;;;17.70;99.90;;;;;;5077168;28;20035;-67
2021/07/04 05:09:53;;;;;;;34.65;22.50;;;17.70;99.90;;;;;;5077383;28;20454;-67
2021/07/04 05:12:19;;;;;;;31.58;23.48;;;17.70;99.90;;;;;;5075518;28;20462;-67
2021/07/04 05:14:44;;;;;;;33.35;21.52;;;17.70;99.90;;;;;;5076969;28;20097;-67
2021/07/04 05:17:10;;;;;;;29.15;22.20;;;17.70;99.90;;;;;;5077259;28;20016;-67
2021/07/04 05:19:35;;;;;;;31.63;23.65;;;17.70;99.90;;;;;;5077132;28;20029;-67
2021/07/04 05:22:01;;;;;;;31.45;22.90;;;17.70;99.90;;;;;;5076621;28;20044;-67
2021/07/04 05:24:26;;;;;;;33.55;22.77;;;17.70;99.90;;;;;;5077025;28;20466;-67
2021/07/04 05:26:52;;;;;;;32.38;23.88;;;17.70;99.90;;;;;;5058798;28;20485;-67
2021/07/04 05:29:17;;;;;;;32.92;23.70;;;17.70;99.90;;;;;;5077020;28;20074;-67
2021/07/04 05:31:43;;;;;;;31.20;21.52;;;17.70;99.90;;;;;;5075495;28;20373;-67
2021/07/04 05:34:08;;;;;;;30.73;22.00;;;17.70;99.90;;;;;;5076938;28;20039;-67
2021/07/04 05:36:34;;;;;;;30.13;22.00;;;17.80;99.90;;;;;;5075059;28;20063;-67
2021/07/04 05:38:59;;;;;;;31.45;23.00;;;17.80;99.90;;;;;;5076813;28;20030;-67
2021/07/04 05:41:25;;;;;;;31.38;22.77;;;17.80;99.90;;;;;;5076785;28;20606;-67
2021/07/04 05:43:50;;;;;;;34.10;23.23;;;17.80;99.90;;;;;;5076639;28;20492;-67
2021/07/04 05:46:16;;;;;;;30.67;23.90;;;17.70;99.90;;;;;;5076768;28;20028;-67
2021/07/04 05:48:44;;;;;;;33.22;23.48;;;17.80;99.90;;;;;;5077065;28;20032;-67
2021/07/04 05:51:10;;;;;;;32.35;24.13;;;17.70;99.90;;;;;;5076597;28;20043;-67
2021/07/04 05:53:35;;;;;;;32.67;23.98;;;17.70;99.90;;;;;;5076265;28;20432;-67
2021/07/04 05:56:01;;;;;;;35.05;25.13;;;17.70;99.90;;;;;;5076509;28;20157;-66
2021/07/04 05:58:27;;;;;;;35.60;24.42;;;17.70;99.90;;;;;;5076442;28;20036;-67
2021/07/04 06:00:52;;;;;;;35.65;24.77;;;17.80;99.90;;;;;;5076479;28;20029;-67
2021/07/04 06:03:18;;;;;;;33.80;24.42;;;17.80;99.90;;;;;;5076313;28;20485;-67
2021/07/04 06:05:44;;;;;;;31.52;24.20;;;17.80;99.90;;;;;;5074535;28;20040;-67
2021/07/04 06:08:09;;;;;;;33.45;23.23;;;17.80;99.90;;;;;;5075149;28;20028;-67
2021/07/04 06:10:35;;;;;;;33.47;24.25;;;17.80;99.90;;;;;;5074818;28;20032;-67
2021/07/04 06:13:02;;;;;;;30.63;22.58;;;17.80;99.90;;;;;;5075913;28;20064;-67
2021/07/04 06:15:28;;;;;;;35.92;22.63;;;17.80;99.90;;;;;;5075869;28;20024;-67
2021/07/04 06:17:53;;;;;;;31.27;23.58;;;17.90;99.90;;;;;;5076130;28;20107;-67
2021/07/04 06:20:20;;;;;;;33.63;24.00;;;17.80;99.90;;;;;;5074229;28;20440;-67
2021/07/04 06:22:47;;;;;;;30.63;23.23;;;17.90;99.90;;;;;;5075503;28;20481;-67
2021/07/04 06:25:14;;;;;;;32.25;22.42;;;18.00;99.90;;;;;;5076012;28;20025;-67
2021/07/04 06:27:40;;;;;;;30.63;23.42;;;18.10;99.90;;;;;;5074407;28;20351;-67
2021/07/04 06:30:09;;;;;;;31.50;22.70;;;18.20;99.90;;;;;;5074058;28;20032;-67
2021/07/04 06:32:36;;;;;;;30.60;21.58;;;18.20;99.90;;;;;;5074571;28;20028;-67
2021/07/04 06:35:03;;;;;;;31.15;21.50;;;18.30;99.90;;;;;;5075146;28;20024;-67
2021/07/04 06:37:29;;;;;;;28.25;21.08;;;18.40;99.90;;;;;;5057360;28;20165;-67
2021/07/04 06:39:55;;;;;;;29.75;20.48;;;18.50;99.90;;;;;;5075139;28;20060;-67
2021/07/04 06:42:20;;;;;;;25.55;20.98;;;18.60;99.90;;;;;;5075609;28;20042;-67
2021/07/04 06:44:46;;;;;;;27.73;20.10;;;18.70;99.90;;;;;;5075314;28;20028;-67
2021/07/04 06:47:11;;;;;;;26.15;20.23;;;18.90;99.90;;;;;;5073797;28;20491;-67
2021/07/04 06:49:37;;;;;;;31.17;18.70;;;18.90;99.90;;;;;;5075246;28;20035;-67
2021/07/04 06:52:03;;;;;;;23.42;18.08;;;19.00;99.90;;;;;;5074902;28;20024;-67
2021/07/04 06:54:28;;;;;;;22.40;18.40;;;19.10;99.90;;;;;;5074899;28;20602;-67
2021/07/04 06:56:54;;;;;;;20.75;17.92;;;19.10;99.90;;;;;;5074827;28;20024;-67
2021/07/04 06:59:19;;;;;;;20.80;17.50;;;19.10;99.90;;;;;;5075310;28;20488;-67
2021/07/04 07:01:45;;;;;;;23.25;17.08;;;19.20;99.90;;;;;;5073811;28;20021;-67
2021/07/04 07:04:13;;;;;;;22.00;16.75;;;19.10;99.90;;;;;;5075100;28;20025;-67
2021/07/04 07:06:39;;;;;;;21.30;15.93;;;19.10;99.90;;;;;;5075203;28;20013;-67
2021/07/04 07:09:04;;;;;;;23.20;17.38;;;19.20;99.90;;;;;;5074825;28;20021;-67
2021/07/04 07:11:30;;;;;;;19.73;16.90;;;19.20;99.90;;;;;;5075113;28;20087;-68
2021/07/04 07:13:55;;;;;;;23.77;17.45;;;19.30;99.90;;;;;;5074973;28;20077;-67
2021/07/04 07:16:21;;;;;;;22.75;17.30;;;19.30;99.90;;;;;;5073481;28;20039;-67
2021/07/04 07:18:47;;;;;;;23.13;16.63;;;19.20;99.90;;;;;;5074606;28;20035;-67
2021/07/04 07:21:12;;;;;;;21.38;16.25;;;19.30;99.90;;;;;;5074837;28;20028;-68
2021/07/04 07:23:41;;;;;;;22.50;16.80;;;19.30;99.90;;;;;;5072841;28;20045;-67
2021/07/04 07:26:07;;;;;;;17.75;15.05;;;19.50;99.90;;;;;;5074224;28;20028;-68
2021/07/04 07:28:33;;;;;;;23.33;15.95;;;19.50;99.90;;;;;;5073764;28;20031;-67
2021/07/04 07:30:58;;;;;;;20.80;16.42;;;19.50;99.90;;;;;;5074713;28;20059;-67
2021/07/04 07:33:24;;;;;;;20.88;16.17;;;19.60;99.90;;;;;;5073141;28;20427;-67
2021/07/04 07:35:51;;;;;;;24.52;17.23;;;19.60;99.90;;;;;;5074619;28;20036;-67
2021/07/04 07:38:18;;;;;;;19.33;15.55;;;19.70;99.90;;;;;;5074347;28;20059;-67
2021/07/04 07:40:43;;;;;;;21.13;15.40;;;19.80;99.90;;;;;;5074534;28;20031;-67
2021/07/04 07:43:09;;;;;;;21.95;15.68;;;20.00;99.90;;;;;;5074141;28;20029;-67
2021/07/04 07:45:35;;;;;;;20.75;15.88;;;20.10;99.90;;;;;;5074464;28;20089;-68
2021/07/04 07:48:00;;;;;;;17.42;14.65;;;20.20;99.90;;;;;;5074417;28;20024;-67
2021/07/04 07:50:26;;;;;;;16.67;13.98;;;20.30;99.90;;;;;;5074377;28;20034;-68
2021/07/04 07:52:52;;;;;;;19.02;14.73;;;20.40;99.90;;;;;;5072624;28;20480;-67
2021/07/04 07:55:18;;;;;;;18.17;14.23;;;20.60;99.90;;;;;;5074296;28;20402;-67
2021/07/04 07:57:43;;;;;;;18.58;14.30;;;21.00;99.90;;;;;;5075926;28;20153;-67
2021/07/04 08:00:11;;;;;;;16.90;13.82;;;21.20;99.90;;;;;;5072479;28;20024;-68
2021/07/04 08:02:37;;;;;;;16.23;14.07;;;21.40;99.90;;;;;;5073909;28;20028;-68
2021/07/04 08:05:03;;;;;;;14.18;12.75;;;21.70;99.90;;;;;;5074196;28;20096;-68
2021/07/04 08:07:29;;;;;;;17.90;13.00;;;21.70;99.90;;;;;;5074186;28;20017;-68
2021/07/04 08:09:54;;;;;;;15.43;12.23;;;21.90;99.90;;;;;;5072400;28;20020;-67
2021/07/04 08:12:20;;;;;;;17.40;13.05;;;22.10;99.90;;;;;;5073883;28;20100;-67
2021/07/04 08:14:46;;;;;;;16.10;12.80;;;22.30;99.90;;;;;;5073801;28;20028;-67
2021/07/04 08:17:11;;;;;;;14.55;12.68;;;22.50;99.90;;;;;;5074089;28;20496;-67
2021/07/04 08:19:37;;;;;;;16.13;13.93;;;22.40;99.90;;;;;;5055545;28;20492;-67
2021/07/04 08:22:03;;;;;;;16.30;12.70;;;22.10;99.90;;;;;;5072747;28;20136;-67
2021/07/04 08:24:29;;;;;;;15.45;12.55;;;22.20;99.90;;;;;;5073900;28;20024;-67
2021/07/04 08:26:54;;;;;;;20.08;12.23;;;22.10;99.90;;;;;;5073407;28;20107;-67
2021/07/04 08:29:21;;;;;;;16.40;12.13;;;22.20;99.90;;;;;;5072773;28;20112;-67
2021/07/04 08:31:47;;;;;;;16.27;12.05;;;22.50;99.90;;;;;;5073335;28;20477;-67
2021/07/04 08:34:12;;;;;;;14.68;11.65;;;22.80;99.90;;;;;;5073921;28;20063;-67
2021/07/04 08:36:38;;;;;;;12.77;11.57;;;22.60;99.90;;;;;;5073982;28;20477;-67
2021/07/04 08:39:05;;;;;;;13.13;10.77;;;22.80;99.90;;;;;;5073024;28;20032;-67
2021/07/04 08:41:31;;;;;;;17.52;11.95;;;22.90;99.90;;;;;;5077817;28;20020;-67
2021/07/04 08:44:02;;;;;;;12.82;10.35;;;22.50;99.90;;;;;;5077697;28;20477;-67
2021/07/04 08:46:27;;;;;;;14.13;11.32;;;22.80;99.90;;;;;;5059377;28;20027;-67
2021/07/04 08:48:53;;;;;;;14.35;11.20;;;23.30;99.90;;;;;;5077837;28;20085;-67
2021/07/04 08:51:19;;;;;;;11.48;10.25;;;24.10;99.90;;;;;;5077729;28;20025;-67
2021/07/04 08:53:44;;;;;;;13.40;10.32;;;24.30;99.90;;;;;;5077687;28;20024;-67
2021/07/04 08:56:10;;;;;;;10.20;9.07;;;24.50;99.90;;;;;;5077148;28;20086;-68
2021/07/04 08:58:35;;;;;;;11.55;9.85;;;24.80;99.90;;;;;;5077068;28;20107;-67
2021/07/04 09:01:12;;;;;;;12.60;9.93;;;24.70;99.90;;;;;;5059104;28;20032;-67
2021/07/04 09:03:40;;;;;;;11.05;9.38;;;24.60;99.90;;;;;;5077411;28;20048;-67
2021/07/04 09:06:06;;;;;;;11.68;10.13;;;24.40;99.90;;;;;;5077473;28;20016;-67
2021/07/04 09:08:31;;;;;;;11.00;9.77;;;24.20;99.90;;;;;;5077421;28;20424;-68
2021/07/04 09:11:17;;;;;;;11.73;9.43;;;24.20;99.90;;;;;;5077311;28;20029;-67
2021/07/04 09:13:46;;;;;;;13.02;9.85;;;24.00;99.90;;;;;;5075565;28;20101;-67
2021/07/04 09:16:15;;;;;;;13.15;10.13;;;24.10;99.90;;;;;;5076978;28;20485;-67
2021/07/04 09:18:42;;;;;;;11.80;9.80;;;24.50;99.90;;;;;;5076042;28;20378;-67
2021/07/04 09:21:24;;;;;;;11.05;9.85;;;24.30;99.90;;;;;;5077107;28;20430;-68
2021/07/04 09:23:51;;;;;;;10.57;9.48;;;24.00;99.90;;;;;;5076419;28;20052;-67
2021/07/04 09:26:37;;;;;;;10.18;9.18;;;24.70;99.90;;;;;;5077065;28;20116;-68
2021/07/04 09:29:04;;;;;;;10.68;9.68;;;24.70;99.90;;;;;;5076431;28;20016;-67
2021/07/04 09:31:29;;;;;;;11.00;9.77;;;24.60;99.90;;;;;;5076930;28;20052;-67
2021/07/04 09:34:12;;;;;;;10.05;8.90;;;24.70;99.90;;;;;;5075897;28;20029;-67
2021/07/04 09:36:40;;;;;;;10.40;9.32;;;25.00;99.90;;;;;;5075681;28;20025;-68
2021/07/04 09:39:21;;;;;;;11.35;9.98;;;25.70;99.90;;;;;;5076819;28;20025;-67
2021/07/04 09:42:08;;;;;;;10.20;9.13;;;26.60;99.90;;;;;;5076797;28;20016;-67
2021/07/04 09:44:35;;;;;;;12.07;8.90;;;28.00;99.90;;;;;;5076389;28;20107;-68
2021/07/04 09:47:12;;;;;;;9.52;7.95;;;28.70;99.90;;;;;;5076687;28;20020;-68
2021/07/04 09:49:38;;;;;;;9.68;8.68;;;29.60;99.90;;;;;;5076385;28;20074;-68
2021/07/04 09:52:13;;;;;;;9.57;8.57;;;30.00;99.90;;;;;;5075788;28;20028;-68
2021/07/04 09:54:53;;;;;;;9.02;8.15;;;29.90;99.90;;;;;;5076317;28;20020;-68
2021/07/04 09:57:19;;;;;;;10.68;9.60;;;30.40;99.90;;;;;;5074726;28;20050;-67
2021/07/04 09:59:44;;;;;;;11.18;9.98;;;30.20;99.90;;;;;;5076449;28;20485;-68
2021/07/04 10:02:15;;;;;;;9.77;8.88;;;30.60;99.90;;;;;;5076392;28;20463;-68
2021/07/04 10:04:41;;;;;;;10.25;9.25;;;30.30;99.90;;;;;;5076252;28;20545;-68
2021/07/04 10:07:07;;;;;;;11.68;8.82;;;29.60;99.90;;;;;;5074875;28;20099;-68
2021/07/04 10:09:33;;;;;;;12.52;9.40;;;29.40;99.90;;;;;;5076299;28;20104;-68
2021/07/04 10:12:00;;;;;;;9.35;8.15;;;29.60;99.90;;;;;;5075050;28;20021;-68
2021/07/04 10:14:26;;;;;;;9.27;8.48;;;30.30;99.90;;;;;;5076166;28;20398;-68
2021/07/04 10:16:52;;;;;;;9.77;8.77;;;30.80;99.90;;;;;;5076109;28;20056;-68
2021/07/04 10:19:23;;;;;;;9.52;8.52;;;30.80;99.90;;;;;;5075831;28;20025;-69
2021/07/04 10:21:51;;;;;;;10.52;8.07;;;30.60;99.90;;;;;;5075801;28;20027;-68
2021/07/04 10:24:17;;;;;;;9.73;8.70;;;30.90;99.90;;;;;;5075997;28;20020;-68
2021/07/04 10:26:44;;;;;;;9.85;8.38;;;31.10;99.90;;;;;;5075674;28;20025;-68
2021/07/04 10:29:12;;;;;;;10.05;8.93;;;30.80;99.90;;;;;;5075639;28;20151;-68
2021/07/04 10:31:38;;;;;;;9.15;8.18;;;31.00;99.90;;;;;;5074631;28;20013;-68
2021/07/04 10:34:07;;;;;;;8.80;8.00;;;31.00;99.90;;;;;;5074025;28;20031;-68
2021/07/04 10:36:52;;;;;;;10.77;8.30;;;31.10;99.90;;;;;;5073948;28;20032;-68
2021/07/04 10:39:18;;;;;;;10.32;8.43;;;30.40;99.90;;;;;;5074316;28;20044;-68
2021/07/04 10:41:55;;;;;;;11.25;8.27;;;29.70;99.90;;;;;;5075573;28;20465;-68
2021/07/04 10:44:36;;;;;;;9.32;8.43;;;28.60;99.90;;;;;;5075428;28;20031;-69
2021/07/04 10:47:05;;;;;;;8.85;8.00;;;27.80;99.90;;;;;;5075530;28;20021;-68
2021/07/04 10:49:40;;;;;;;9.07;8.15;;;27.80;99.90;;;;;;5075563;28;20031;-68
2021/07/04 10:52:11;;;;;;;8.35;7.55;;;27.20;99.90;;;;;;5075148;28;20044;-67
2021/07/04 10:57:54;;;;;;;12.30;8.35;;;26.70;99.90;;;;;;5112118;27;20862;-67
2021/07/04 11:00:26;;;;;;;9.35;8.43;;;25.50;99.90;;;;;;5109977;28;20481;-67
2021/07/04 11:08:19;;;;;;;9.73;8.52;;;25.00;99.90;;;;;;5112194;27;20287;-66
2021/07/04 11:10:55;;;;;;;9.88;8.55;;;24.50;99.90;;;;;;5111579;28;20107;-66
2021/07/04 11:16:09;;;;;;;12.25;8.13;;;24.40;99.90;;;;;;5112181;27;20380;-67
2021/07/04 11:18:40;;;;;;;9.70;8.70;;;24.10;99.90;;;;;;5111834;28;20107;-66
2021/07/04 11:21:06;;;;;;;9.38;8.30;;;24.10;99.90;;;;;;5109936;28;20431;-66
2021/07/04 11:23:32;;;;;;;8.93;8.10;;;24.00;99.90;;;;;;5109899;28;20024;-66
2021/07/04 11:26:11;;;;;;;9.55;8.55;;;23.70;99.90;;;;;;5110520;28;20020;-66
2021/07/04 11:28:42;;;;;;;10.20;8.57;;;23.70;99.90;;;;;;5111399;28;20026;-67
2021/07/04 11:33:56;;;;;;;9.35;8.45;;;23.60;99.90;;;;;;5071582;28;20726;-66
2021/07/04 11:36:27;;;;;;;8.93;8.02;;;23.60;99.90;;;;;;5070790;28;20031;-66
2021/07/04 11:39:13;;;;;;;10.55;8.52;;;23.70;99.90;;;;;;5071257;28;20025;-66
2021/07/04 11:41:50;;;;;;;9.57;8.52;;;23.80;99.90;;;;;;5070531;28;20051;-68
2021/07/04 11:44:18;;;;;;;9.05;8.15;;;23.80;99.90;;;;;;5070966;28;20053;-68
2021/07/04 11:46:47;;;;;;;9.40;8.38;;;24.10;99.90;;;;;;5071054;28;20025;-68
2021/07/04 11:49:15;;;;;;;8.68;7.75;;;24.10;99.90;;;;;;5071050;28;20111;-67
2021/07/04 11:51:52;;;;;;;8.98;8.18;;;24.20;99.90;;;;;;5070560;28;20466;-67
2021/07/04 11:54:27;;;;;;;10.80;8.63;;;24.20;99.90;;;;;;5070311;28;20490;-67
2021/07/04 11:57:34;;;;;;;10.45;9.00;;;24.30;99.90;;;;;;5069073;28;20108;-67
2021/07/04 11:59:58;;;;;;;10.60;8.93;;;24.20;99.90;;;;;;5069121;28;20389;-67
2021/07/04 12:02:24;;;;;;;7.28;6.05;;;24.10;99.90;;;;;;5069076;28;20112;-67
2021/07/04 12:04:50;;;;;;;7.22;5.18;;;23.40;99.90;;;;;;5070741;28;20032;-67
2021/07/04 12:07:20;;;;;;;6.45;5.85;;;23.00;99.90;;;;;;5070538;28;20402;-67
2021/07/04 12:09:48;;;;;;;6.63;5.00;;;22.90;99.90;;;;;;5070346;28;20120;-67
2021/07/04 12:12:20;;;;;;;4.30;3.90;;;22.90;99.90;;;;;;5069890;28;20055;-67
2021/07/04 12:14:50;;;;;;;8.73;4.65;;;22.50;99.90;;;;;;5068659;28;20017;-67
2021/07/04 12:17:21;;;;;;;5.43;4.50;;;22.50;99.90;;;;;;5069014;28;20024;-67
2021/07/04 12:19:55;;;;;;;5.45;4.95;;;22.60;99.90;;;;;;5052020;28;20021;-67
2021/07/04 12:22:24;;;;;;;5.00;4.50;;;22.60;99.90;;;;;;5069844;28;20047;-67
2021/07/04 12:24:50;;;;;;;6.60;4.43;;;22.60;99.90;;;;;;5070362;28;20021;-67
2021/07/04 12:27:16;;;;;;;5.88;4.90;;;22.70;99.90;;;;;;5069708;28;20020;-67
2021/07/04 12:30:18;;;;;;;11.15;8.00;;;22.80;99.90;;;;;;5069947;28;20049;-67
2021/07/04 12:32:51;;;;;;;10.50;9.35;;;22.50;99.90;;;;;;5069325;28;20405;-67
2021/07/04 12:35:26;;;;;;;;;;;22.50;99.90;;;;;;5070226;28;20079;-67
2021/07/04 12:37:53;;;;;;;18.33;15.52;;;22.30;99.90;;;;;;5085464;28;19958;-67
2021/07/04 12:40:23;;;;;;;26.90;19.73;;;22.30;99.90;;;;;;5068911;28;20027;-67
2021/07/04 12:42:49;;;;;;;8.25;7.32;;;22.20;99.90;;;;;;5068074;28;20028;-67
2021/07/04 12:45:19;;;;;;;6.95;6.22;;;22.20;99.90;;;;;;5055998;28;20037;-67